Time;durP1;ratioP1;P1;durP2;ratioP2;P2;SDS_P1;SDS_P2;PMS_P1;PMS_P2;Temp;Humidity;BMP_temperature;BMP_pressure;BME280_temperature;BME280_humidity;BME280_pressure;Samples;Min_cycle;Max_cycle;Signal;HPM_P1;HPM_P2
2022/05/31 00:00:33;;;;;;;4.30;3.30;;;;;;;9.52;73.74;96619.83;107831;1267;43257;-72
2022/05/31 00:03:08;;;;;;;4.90;3.50;;;;;;;9.50;73.98;96625.40;107783;1270;30490;-73
2022/05/31 00:05:39;;;;;;;6.40;3.40;;;;;;;9.49;74.23;96627.25;107717;1267;48736;-72
2022/05/31 00:08:10;;;;;;;5.30;3.60;;;;;;;9.49;74.32;96627.73;107764;1267;46599;-72
2022/05/31 00:10:43;;;;;;;3.70;3.20;;;;;;;9.52;74.45;96624.11;107747;1270;42309;-72
2022/05/31 00:13:15;;;;;;;7.10;3.50;;;;;;;9.56;74.45;96625.69;107757;1265;37689;-72
2022/05/31 00:15:45;;;;;;;4.90;3.90;;;;;;;9.55;74.57;96629.34;107729;1269;49307;-72
2022/05/31 00:18:16;;;;;;;4.90;3.70;;;;;;;9.49;74.65;96635.09;107751;1267;38550;-72
2022/05/31 00:20:47;;;;;;;4.00;2.80;;;;;;;9.41;74.62;96637.18;107799;1267;33877;-72
2022/05/31 00:23:18;;;;;;;5.70;3.70;;;;;;;9.28;74.86;96633.41;107738;1267;43398;-72
2022/05/31 00:25:50;;;;;;;5.90;4.30;;;;;;;9.23;75.25;96632.04;107804;1267;39725;-72
2022/05/31 00:28:21;;;;;;;5.30;4.30;;;;;;;9.29;75.36;96631.92;107893;1267;26434;-72
2022/05/31 00:30:52;;;;;;;4.40;3.70;;;;;;;9.36;75.23;96634.87;107719;1270;48371;-72
2022/05/31 00:33:23;;;;;;;6.30;3.40;;;;;;;9.42;75.25;96635.54;107803;1267;29513;-72
2022/05/31 00:35:54;;;;;;;5.40;3.70;;;;;;;9.51;75.18;96635.77;107748;1267;47534;-72
2022/05/31 00:38:25;;;;;;;7.10;4.60;;;;;;;9.60;75.09;96635.69;107753;1267;44025;-72
2022/05/31 00:41:23;;;;;;;5.00;3.90;;;;;;;9.66;74.93;96636.56;107798;1267;32669;-72
2022/05/31 00:43:47;;;;;;;6.40;4.20;;;;;;;9.68;74.68;96639.94;107773;1266;41210;-72
2022/05/31 00:46:20;;;;;;;5.40;3.80;;;;;;;9.67;74.50;96641.54;107773;1267;30389;-72
2022/05/31 00:48:57;;;;;;;4.30;3.80;;;;;;;9.63;74.32;96645.64;107506;1270;233492;-72
2022/05/31 00:51:38;;;;;;;4.40;3.20;;;;;;;9.59;74.43;96647.39;107781;1267;41585;-72
2022/05/31 00:54:17;;;;;;;4.80;3.60;;;;;;;9.47;74.59;96644.88;107820;1267;42438;-73
2022/05/31 00:56:50;;;;;;;5.00;4.30;;;;;;;9.30;74.74;96647.22;107769;1267;36964;-72
2022/05/31 00:59:26;;;;;;;5.60;4.30;;;;;;;9.22;75.14;96647.02;107847;1267;36429;-73
2022/05/31 01:01:58;;;;;;;5.10;4.10;;;;;;;9.18;75.38;96646.39;107777;1267;41737;-72
2022/05/31 01:04:39;;;;;;;6.60;3.80;;;;;;;9.14;75.49;96650.90;107759;1269;32931;-72
2022/05/31 01:07:10;;;;;;;4.90;4.20;;;;;;;9.17;75.50;96652.44;107744;1267;52189;-72
2022/05/31 01:09:41;;;;;;;5.20;3.60;;;;;;;9.24;75.38;96650.40;107771;1267;44728;-72
2022/05/31 01:12:14;;;;;;;5.70;4.10;;;;;;;9.28;75.39;96656.25;107836;1267;32626;-72
2022/05/31 01:14:45;;;;;;;6.40;4.70;;;;;;;9.29;75.25;96657.43;107724;1270;46416;-71
2022/05/31 01:17:19;;;;;;;5.60;3.50;;;;;;;9.31;75.42;96661.34;107809;1267;38711;-71
2022/05/31 01:19:59;;;;;;;4.60;3.40;;;;;;;9.26;75.06;96665.52;107721;1270;49493;-72
2022/05/31 01:22:37;;;;;;;4.80;3.50;;;;;;;9.23;75.20;96670.50;107849;1267;31131;-72
2022/05/31 01:25:25;;;;;;;4.40;3.90;;;;;;;9.21;75.30;96675.27;107825;1267;41204;-72
2022/05/31 01:28:03;;;;;;;5.20;4.20;;;;;;;9.18;75.50;96673.65;107802;1270;39413;-72
2022/05/31 01:30:40;;;;;;;3.90;3.20;;;;;;;9.11;75.47;96677.98;107853;1267;46895;-72
2022/05/31 01:33:17;;;;;;;4.70;3.80;;;;;;;9.07;75.65;96682.96;107746;1267;33912;-72
2022/05/31 01:35:48;;;;;;;5.40;4.10;;;;;;;9.02;75.52;96681.64;107804;1269;31508;-72
2022/05/31 01:38:24;;;;;;;5.10;4.60;;;;;;;8.84;75.43;96684.56;107752;1267;48240;-72
2022/05/31 01:41:06;;;;;;;5.60;4.00;;;;;;;8.64;75.98;96680.34;107774;1267;48731;-71
2022/05/31 01:43:37;;;;;;;4.60;3.20;;;;;;;8.60;76.26;96686.67;107703;1268;44913;-72
2022/05/31 01:46:13;;;;;;;4.40;3.70;;;;;;;8.62;76.32;96688.84;107759;1270;31908;-72
2022/05/31 01:48:46;;;;;;;4.50;3.80;;;;;;;8.64;76.38;96692.01;107758;1270;34464;-73
2022/05/31 01:51:17;;;;;;;6.80;5.20;;;;;;;8.59;76.39;96690.48;107723;1269;39507;-72
2022/05/31 01:53:48;;;;;;;5.00;4.30;;;;;;;8.47;76.72;96691.05;107722;1268;49206;-72
2022/05/31 01:56:19;;;;;;;4.90;4.10;;;;;;;8.41;76.93;96691.23;107841;1267;30614;-72
2022/05/31 01:58:54;;;;;;;6.80;4.10;;;;;;;8.30;77.05;96690.56;107809;1267;36507;-72
2022/05/31 02:01:26;;;;;;;4.50;3.90;;;;;;;8.25;77.22;96691.23;107786;1267;45861;-72
2022/05/31 02:03:57;;;;;;;5.20;3.90;;;;;;;8.27;77.15;96692.50;107700;1270;43007;-72
2022/05/31 02:06:30;;;;;;;4.90;3.70;;;;;;;8.19;77.27;96690.16;107819;1267;28584;-72
2022/05/31 02:09:02;;;;;;;6.90;4.00;;;;;;;8.03;77.37;96689.95;107822;1270;44278;-72
2022/05/31 02:11:33;;;;;;;3.80;3.20;;;;;;;7.95;77.74;96689.56;107790;1270;42454;-72
2022/05/31 02:14:04;;;;;;;5.10;3.80;;;;;;;7.94;77.99;96688.52;107885;1267;31117;-72
2022/05/31 02:16:36;;;;;;;5.10;3.80;;;;;;;7.83;77.90;96689.36;107808;1267;49593;-72
2022/05/31 02:19:25;;;;;;;6.20;3.40;;;;;;;7.65;78.11;96691.92;107809;1267;50132;-72
2022/05/31 02:21:58;;;;;;;4.80;3.40;;;;;;;7.46;78.42;96692.73;107743;1270;43845;-72
2022/05/31 02:24:30;;;;;;;4.70;3.60;;;;;;;7.37;79.37;96695.90;107796;1267;31841;-71
2022/05/31 02:27:01;;;;;;;5.30;3.80;;;;;;;7.39;79.93;96695.27;107764;1267;36867;-72
2022/05/31 02:29:34;;;;;;;4.60;3.70;;;;;;;7.45;80.02;96694.30;107803;1267;33743;-71
2022/05/31 02:32:08;;;;;;;4.60;3.80;;;;;;;7.56;80.76;96690.25;107814;1267;45764;-72
2022/05/31 02:34:42;;;;;;;5.50;4.70;;;;;;;7.80;80.96;96687.65;107849;1267;27212;-72
2022/05/31 02:37:14;;;;;;;6.10;4.40;;;;;;;7.99;80.85;96689.58;107803;1267;34099;-72
2022/05/31 02:39:45;;;;;;;5.90;5.20;;;;;;;8.01;80.27;96690.94;107763;1270;40185;-72
2022/05/31 02:42:17;;;;;;;4.90;4.00;;;;;;;8.07;80.49;96695.78;107762;1267;40323;-72
2022/05/31 02:44:48;;;;;;;6.00;4.40;;;;;;;8.16;80.89;96702.14;107693;1267;44569;-72
2022/05/31 02:47:20;;;;;;;6.60;4.50;;;;;;;8.30;80.93;96703.08;107804;1267;35005;-72
2022/05/31 02:49:51;;;;;;;5.30;4.80;;;;;;;8.41;81.06;96706.51;107752;1270;48189;-71
2022/05/31 02:52:22;;;;;;;8.90;5.90;;;;;;;8.48;80.84;96701.20;107802;1267;41361;-72
2022/05/31 02:54:53;;;;;;;6.40;5.60;;;;;;;8.57;80.70;96696.48;107702;1270;40857;-71
2022/05/31 02:57:24;;;;;;;6.90;6.20;;;;;;;8.63;80.58;96697.77;107758;1267;35211;-71
2022/05/31 02:59:54;;;;;;;7.40;4.70;;;;;;;8.66;80.25;96698.93;107752;1267;39861;-72
2022/05/31 03:02:27;;;;;;;7.40;4.60;;;;;;;8.67;80.34;96698.66;107721;1267;61009;-72
2022/05/31 03:04:57;;;;;;;6.60;5.10;;;;;;;8.73;80.38;96704.08;107653;1267;100808;-72
2022/05/31 03:07:28;;;;;;;6.50;5.60;;;;;;;8.81;80.31;96703.85;107764;1267;40375;-71
2022/05/31 03:09:59;;;;;;;7.30;5.10;;;;;;;8.87;80.08;96704.39;107751;1267;33003;-72
2022/05/31 03:12:30;;;;;;;5.30;4.50;;;;;;;8.90;79.75;96705.45;107729;1267;51080;-72
2022/05/31 03:15:05;;;;;;;5.20;4.00;;;;;;;8.93;79.73;96708.52;107779;1267;39343;-72
2022/05/31 03:17:41;;;;;;;6.10;4.50;;;;;;;8.94;79.76;96709.89;107873;1267;38817;-72
2022/05/31 03:20:18;;;;;;;7.50;5.70;;;;;;;8.96;79.68;96713.64;107822;1267;33918;-71
2022/05/31 03:22:52;;;;;;;5.70;4.90;;;;;;;8.98;80.11;96708.45;107757;1267;41423;-72
2022/05/31 03:25:25;;;;;;;6.10;4.50;;;;;;;9.01;80.07;96710.36;107703;1270;38386;-71
2022/05/31 03:27:59;;;;;;;6.20;4.40;;;;;;;9.01;80.07;96711.05;107802;1267;30810;-71
2022/05/31 03:30:33;;;;;;;6.30;4.30;;;;;;;9.02;80.04;96707.20;107825;1267;40367;-72
2022/05/31 03:33:05;;;;;;;6.30;4.40;;;;;;;9.08;79.95;96704.43;107876;1267;36305;-72
2022/05/31 03:35:36;;;;;;;6.00;4.30;;;;;;;9.20;79.88;96703.58;107792;1270;42721;-72
2022/05/31 03:38:08;;;;;;;6.30;4.90;;;;;;;9.23;79.53;96709.60;107816;1266;32899;-72
2022/05/31 03:40:57;;;;;;;7.90;5.10;;;;;;;9.19;79.65;96712.15;107763;1267;41479;-72
2022/05/31 03:43:30;;;;;;;6.00;4.60;;;;;;;9.24;79.57;96712.30;107829;1267;38617;-71
2022/05/31 03:46:02;;;;;;;9.30;5.70;;;;;;;9.29;79.44;96710.98;107836;1267;42909;-72
2022/05/31 03:48:33;;;;;;;8.40;5.50;;;;;;;9.34;79.45;96710.27;107833;1270;40091;-72
2022/05/31 03:51:05;;;;;;;9.90;5.90;;;;;;;9.41;79.35;96713.80;107822;1270;28964;-72
2022/05/31 03:53:36;;;;;;;7.20;5.10;;;;;;;9.51;79.54;96710.44;107884;1267;37707;-72
2022/05/31 03:56:10;;;;;;;6.80;5.20;;;;;;;9.59;79.43;96708.44;107793;1267;41901;-73
2022/05/31 03:58:41;;;;;;;5.90;4.60;;;;;;;9.67;79.40;96708.44;107772;1267;44506;-72
2022/05/31 04:01:12;;;;;;;7.50;5.70;;;;;;;9.79;79.33;96708.15;107783;1267;49057;-72
2022/05/31 04:03:44;;;;;;;7.20;5.80;;;;;;;9.93;79.36;96712.17;107783;1267;34971;-72
2022/05/31 04:06:15;;;;;;;7.90;5.80;;;;;;;10.05;79.31;96712.17;107782;1267;34543;-72
2022/05/31 04:08:45;;;;;;;7.80;5.40;;;;;;;10.19;79.24;96710.86;107736;1270;32926;-72
2022/05/31 04:11:16;;;;;;;6.10;4.90;;;;;;;10.32;79.05;96716.10;107741;1267;44348;-71
2022/05/31 04:13:47;;;;;;;5.10;4.00;;;;;;;10.45;78.75;96713.22;107751;1267;41806;-72
2022/05/31 04:16:19;;;;;;;6.70;4.70;;;;;;;10.58;78.44;96712.77;107844;1267;29596;-71
2022/05/31 04:18:50;;;;;;;5.80;4.80;;;;;;;10.71;78.07;96714.38;107727;1267;50481;-71
2022/05/31 04:21:21;;;;;;;7.20;5.10;;;;;;;10.82;77.76;96710.27;107851;1267;35169;-72
2022/05/31 04:23:59;;;;;;;6.70;5.70;;;;;;;10.92;77.42;96709.71;107759;1270;31383;-71
2022/05/31 04:26:32;;;;;;;5.20;4.30;;;;;;;11.04;77.03;96714.77;107834;1267;34606;-72
2022/05/31 04:29:03;;;;;;;6.90;4.40;;;;;;;11.13;76.85;96718.73;107858;1267;42622;-72
2022/05/31 04:31:34;;;;;;;6.80;5.20;;;;;;;11.24;76.71;96723.02;107811;1267;42590;-72
2022/05/31 04:34:07;;;;;;;6.60;4.60;;;;;;;11.39;76.67;96720.77;107724;1270;44327;-72
2022/05/31 04:36:39;;;;;;;6.20;4.90;;;;;;;11.50;76.03;96718.31;107729;1268;40160;-72
2022/05/31 04:39:10;;;;;;;8.50;5.00;;;;;;;11.53;75.60;96721.69;107736;1267;38990;-73
2022/05/31 04:41:41;;;;;;;4.80;4.10;;;;;;;11.62;75.65;96720.12;107700;1270;47563;-72
2022/05/31 04:44:12;;;;;;;5.80;4.70;;;;;;;11.70;75.11;96719.92;107812;1267;42521;-72
2022/05/31 04:46:43;;;;;;;7.20;5.10;;;;;;;11.86;75.17;96720.73;107771;1267;44152;-72
2022/05/31 04:49:14;;;;;;;5.90;4.50;;;;;;;12.07;75.02;96723.27;107670;1270;57499;-72
2022/05/31 04:51:45;;;;;;;5.90;4.50;;;;;;;12.27;74.76;96720.08;107822;1267;34333;-72
2022/05/31 04:54:17;;;;;;;5.20;4.20;;;;;;;12.43;74.31;96718.69;107760;1267;67668;-72
2022/05/31 04:56:48;;;;;;;5.10;3.90;;;;;;;12.59;73.71;96719.11;107793;1267;38769;-72
2022/05/31 04:59:21;;;;;;;6.20;4.10;;;;;;;12.68;72.69;96717.38;107729;1267;47418;-72
2022/05/31 05:01:52;;;;;;;6.00;4.60;;;;;;;12.77;71.92;96719.33;107680;1270;60880;-72
2022/05/31 05:04:24;;;;;;;7.50;4.50;;;;;;;12.98;72.12;96717.35;107755;1267;44307;-72
2022/05/31 05:06:54;;;;;;;6.50;4.60;;;;;;;13.32;72.31;96718.05;107660;1270;50675;-72
2022/05/31 05:09:25;;;;;;;5.70;4.90;;;;;;;13.79;71.58;96714.69;107752;1267;56534;-72
2022/05/31 05:11:56;;;;;;;7.40;3.90;;;;;;;15.41;71.94;96713.14;107688;1267;78089;-72
2022/05/31 05:14:27;;;;;;;4.60;3.80;;;;;;;17.97;68.92;96713.67;107739;1267;45915;-72
2022/05/31 05:16:58;;;;;;;5.60;3.70;;;;;;;20.35;66.18;96709.97;107805;1267;46015;-72
2022/05/31 05:19:32;;;;;;;4.10;3.60;;;;;;;22.62;61.37;96709.70;107697;1268;43795;-72
2022/05/31 05:22:03;;;;;;;4.10;3.70;;;;;;;24.04;56.97;96708.58;107869;1267;38144;-72
2022/05/31 05:24:34;;;;;;;3.90;2.90;;;;;;;25.28;52.97;96714.77;107899;1267;40298;-72
2022/05/31 05:27:06;;;;;;;4.60;3.00;;;;;;;25.87;49.62;96719.29;107824;1268;70556;-72
2022/05/31 05:32:26;;;;;;;4.30;3.20;;;;;;;28.16;47.69;96714.23;107773;1267;46220;-73
2022/05/31 05:34:56;;;;;;;5.30;2.90;;;;;;;29.23;43.61;96715.56;107815;1267;39937;-73
2022/05/31 05:37:27;;;;;;;5.50;3.10;;;;;;;29.42;42.17;96718.15;107791;1267;41341;-73
2022/05/31 05:39:58;;;;;;;4.30;2.90;;;;;;;30.12;42.14;96722.89;107726;1268;34714;-73
2022/05/31 05:42:29;;;;;;;5.20;2.70;;;;;;;31.07;37.87;96719.83;107798;1267;45138;-73
2022/05/31 05:45:02;;;;;;;5.50;2.70;;;;;;;30.46;37.33;96717.88;107729;1271;34714;-73
2022/05/31 05:47:33;;;;;;;2.90;2.60;;;;;;;31.09;36.60;96717.29;107813;1267;42219;-73
2022/05/31 05:50:06;;;;;;;3.80;2.60;;;;;;;31.10;36.32;96719.70;107915;1267;32492;-73
2022/05/31 05:52:38;;;;;;;4.30;2.90;;;;;;;31.83;35.14;96716.30;107692;1270;47714;-75
2022/05/31 05:55:10;;;;;;;5.00;2.80;;;;;;;32.56;34.86;96720.50;107858;1267;34625;-74
2022/05/31 05:57:41;;;;;;;3.20;2.60;;;;;;;33.98;34.54;96716.81;107859;1267;64012;-74
2022/05/31 06:00:16;;;;;;;3.20;2.50;;;;;;;34.64;30.99;96718.95;107709;1269;40339;-74
2022/05/31 06:02:53;;;;;;;2.70;2.50;;;;;;;33.38;29.99;96715.32;107890;1267;45476;-73
2022/05/31 06:05:27;;;;;;;4.30;2.90;;;;;;;34.08;31.20;96715.08;107747;1267;41194;-74
2022/05/31 06:08:03;;;;;;;3.30;2.70;;;;;;;35.73;31.03;96715.46;107732;1270;43409;-74
2022/05/31 06:10:38;;;;;;;3.30;3.00;;;;;;;37.02;29.81;96714.65;107953;1267;29673;-74
2022/05/31 06:13:18;;;;;;;3.60;2.60;;;;;;;37.52;27.89;96717.08;107698;1269;45217;-74
2022/05/31 06:15:49;;;;;;;;;;;;;;;36.34;26.96;96714.40;107894;1267;35513;-74
2022/05/31 06:18:26;;;;;;;3.80;2.50;;;;;;;36.60;27.78;96714.31;107784;1267;47832;-74
2022/05/31 06:21:00;;;;;;;3.40;2.50;;;;;;;37.35;27.08;96714.66;107746;1270;42189;-74
2022/05/31 06:23:34;;;;;;;4.80;2.80;;;;;;;36.89;25.20;96715.66;107786;1267;49122;-74
2022/05/31 06:26:06;;;;;;;2.90;2.50;;;;;;;36.56;26.32;96719.11;107867;1267;47043;-74
2022/05/31 06:28:37;;;;;;;3.90;2.30;;;;;;;37.49;26.16;96716.02;107857;1268;31170;-74
2022/05/31 06:31:08;;;;;;;2.90;2.60;;;;;;;38.20;25.33;96712.27;107815;1267;48868;-74
2022/05/31 06:33:39;;;;;;;2.80;2.40;;;;;;;37.53;23.53;96713.37;107814;1267;36463;-74
2022/05/31 06:36:10;;;;;;;3.60;3.00;;;;;;;37.00;24.46;96710.52;107815;1268;43194;-74
2022/05/31 06:38:41;;;;;;;4.00;3.00;;;;;;;36.41;24.00;96708.57;107792;1267;47016;-75
2022/05/31 06:41:13;;;;;;;4.90;2.80;;;;;;;35.62;23.73;96709.66;107860;1267;40602;-75
2022/05/31 06:43:44;;;;;;;3.60;2.90;;;;;;;34.27;24.18;96711.46;107713;1271;48338;-75
2022/05/31 06:46:15;;;;;;;4.10;2.70;;;;;;;34.58;25.63;96711.10;107846;1268;37819;-75
2022/05/31 06:48:46;;;;;;;4.00;2.60;;;;;;;35.87;25.68;96706.48;107771;1268;31428;-75
2022/05/31 06:56:48;;;;;;;5.00;2.80;;;;;;;37.38;24.99;96705.02;107763;1270;48090;-75
2022/05/31 06:57:05;;;;;;;4.10;2.70;;;;;;;39.43;23.34;96707.88;107702;1268;48122;-75
2022/05/31 06:59:37;;;;;;;2.50;2.30;;;;;;;40.19;23.20;96711.16;107895;1267;37234;-75
2022/05/31 07:02:08;;;;;;;2.90;2.70;;;;;;;41.02;22.09;96706.96;107789;1267;47716;-76
2022/05/31 07:04:40;;;;;;;2.50;2.30;;;;;;;41.29;21.65;96705.04;107883;1268;32505;-75
2022/05/31 07:07:11;;;;;;;3.00;2.70;;;;;;;40.41;19.85;96709.95;107803;1268;47018;-75
2022/05/31 07:09:42;;;;;;;4.90;2.70;;;;;;;40.16;21.22;96707.41;107863;1267;47745;-75
2022/05/31 07:12:13;;;;;;;2.80;2.60;;;;;;;39.52;20.36;96708.73;107842;1268;31514;-75
2022/05/31 07:14:44;;;;;;;3.40;2.50;;;;;;;38.67;19.92;96707.94;107736;1270;47166;-75
2022/05/31 07:17:15;;;;;;;4.30;3.10;;;;;;;37.56;21.71;96706.89;107850;1268;39363;-75
2022/05/31 07:19:47;;;;;;;4.00;2.60;;;;;;;38.83;21.48;96708.41;107760;1269;39126;-75
2022/05/31 07:22:18;;;;;;;3.70;3.10;;;;;;;39.50;21.42;96707.14;107888;1268;32826;-75
2022/05/31 07:24:49;;;;;;;3.40;2.60;;;;;;;41.00;21.20;96701.56;107803;1268;41706;-75
2022/05/31 07:27:20;;;;;;;3.70;2.50;;;;;;;42.25;20.61;96705.59;106285;1271;2021725;-75
2022/05/31 07:29:51;;;;;;;4.20;2.80;;;;;;;43.20;19.87;96707.70;107783;1268;52389;-75
2022/05/31 07:32:22;;;;;;;2.60;2.40;;;;;;;43.75;18.66;96712.54;107714;1268;48964;-75
2022/05/31 07:34:53;;;;;;;3.60;2.30;;;;;;;42.23;17.88;96709.37;107789;1268;44718;-76
2022/05/31 07:37:23;;;;;;;4.50;3.10;;;;;;;41.79;18.83;96702.24;107784;1271;28814;-75
2022/05/31 07:39:54;;;;;;;2.90;2.30;;;;;;;40.10;19.43;96703.95;107843;1268;36687;-75
2022/05/31 07:42:25;;;;;;;4.00;2.30;;;;;;;40.21;19.84;96706.05;107802;1268;39063;-75
2022/05/31 07:44:57;;;;;;;2.90;2.20;;;;;;;40.37;19.55;96707.33;107858;1268;41875;-75
2022/05/31 07:47:28;;;;;;;3.30;2.40;;;;;;;38.06;19.35;96699.98;107718;1271;43894;-75
2022/05/31 07:50:00;;;;;;;5.20;3.30;;;;;;;36.60;21.15;96697.98;107782;1269;37760;-75
2022/05/31 07:52:32;;;;;;;2.90;2.60;;;;;;;36.91;21.36;96698.30;107835;1268;47406;-75
2022/05/31 07:55:03;;;;;;;3.70;2.50;;;;;;;37.45;21.40;96704.27;107902;1268;33191;-75
2022/05/31 08:00:24;;;;;;;3.00;2.20;;;;;;;34.39;21.92;96702.03;107720;1271;39076;-74
2022/05/31 08:02:55;;;;;;;5.60;2.70;;;;;;;32.92;23.17;96699.45;107871;1268;43666;-74
2022/05/31 08:05:25;;;;;;;6.60;3.10;;;;;;;31.67;24.15;96704.55;107735;1271;41689;-73
2022/05/31 08:07:59;;;;;;;4.70;3.10;;;;;;;30.43;25.04;96706.39;107693;1271;48224;-74
2022/05/31 08:10:31;;;;;;;17.50;13.70;;;;;;;29.33;26.20;96699.92;107841;1268;49334;-74
2022/05/31 08:13:01;;;;;;;15.50;11.60;;;;;;;30.23;26.81;96703.65;107827;1268;44274;-74
2022/05/31 08:15:32;;;;;;;4.10;3.50;;;;;;;30.92;26.73;96699.73;107796;1268;48442;-74
2022/05/31 08:18:03;;;;;;;3.70;2.90;;;;;;;30.47;26.69;96697.91;107821;1271;33534;-73
2022/05/31 08:20:34;;;;;;;2.50;2.30;;;;;;;29.20;26.85;96696.14;107910;1268;30495;-74
2022/05/31 08:23:06;;;;;;;5.60;4.40;;;;;;;28.25;27.63;96694.77;107805;1268;46931;-73
2022/05/31 08:25:38;;;;;;;14.10;9.60;;;;;;;27.29;27.53;96692.63;107915;1267;37493;-74
2022/05/31 08:28:09;;;;;;;6.80;4.50;;;;;;;26.32;28.56;96690.14;107881;1268;47706;-73
2022/05/31 08:30:40;;;;;;;3.80;2.20;;;;;;;25.84;29.65;96697.77;107921;1267;27113;-74
2022/05/31 08:33:11;;;;;;;4.50;2.20;;;;;;;26.30;30.19;96697.78;107841;1268;49642;-73
2022/05/31 08:35:42;;;;;;;2.10;1.90;;;;;;;27.35;28.33;96688.52;107750;1271;39662;-73
2022/05/31 08:38:15;;;;;;;1.80;1.50;;;;;;;26.72;28.55;96692.32;107870;1268;36252;-74
2022/05/31 08:40:58;;;;;;;2.40;2.10;;;;;;;26.72;28.32;96691.70;107733;1268;53889;-73
2022/05/31 08:43:38;;;;;;;3.10;1.80;;;;;;;26.43;29.02;96692.70;107872;1268;41365;-73
2022/05/31 08:46:16;;;;;;;2.10;1.70;;;;;;;27.57;29.98;96683.46;107690;1271;46440;-74
2022/05/31 08:48:58;;;;;;;2.40;1.70;;;;;;;29.30;28.03;96678.25;107812;1268;49546;-74
2022/05/31 08:51:53;;;;;;;2.70;1.90;;;;;;;29.82;25.86;96680.09;107662;1268;41472;-74
2022/05/31 08:57:35;;;;;;;4.70;1.60;;;;;;;26.60;28.08;96669.80;107688;1269;48669;-73
2022/05/31 09:00:08;;;;;;;2.10;1.90;;;;;;;25.17;28.02;96679.11;107864;1268;47359;-73
2022/05/31 09:02:47;;;;;;;2.10;1.70;;;;;;;23.51;30.04;96676.88;107906;1268;40069;-73
2022/05/31 09:05:27;;;;;;;2.00;1.80;;;;;;;23.07;31.70;96676.70;107703;1268;43249;-73
2022/05/31 09:08:06;;;;;;;1.40;1.30;;;;;;;23.71;32.68;96672.05;107804;1268;39007;-74
2022/05/31 09:10:43;;;;;;;2.90;2.20;;;;;;;24.40;32.09;96675.39;107735;1268;45890;-73
2022/05/31 09:13:21;;;;;;;4.40;1.90;;;;;;;23.83;31.24;96672.73;107846;1268;48010;-73
2022/05/31 09:15:56;;;;;;;3.40;1.90;;;;;;;23.75;32.88;96664.02;107791;1268;33168;-73
2022/05/31 09:18:39;;;;;;;3.60;2.20;;;;;;;24.01;32.21;96667.45;107676;1268;40520;-74
2022/05/31 09:21:20;;;;;;;6.40;4.00;;;;;;;23.72;31.42;96668.77;107853;1268;36577;-74
2022/05/31 09:23:55;;;;;;;3.00;2.40;;;;;;;23.41;32.53;96665.27;107867;1268;39452;-73
2022/05/31 09:26:51;;;;;;;3.20;2.40;;;;;;;23.60;32.80;96664.54;107726;1271;32167;-74
2022/05/31 09:29:26;;;;;;;8.30;4.00;;;;;;;23.50;31.29;96667.83;107841;1268;40681;-73
2022/05/31 09:32:11;;;;;;;8.50;4.50;;;;;;;23.21;32.81;96669.41;107786;1268;43102;-73
2022/05/31 09:35:07;;;;;;;3.00;1.90;;;;;;;23.41;32.20;96675.48;107711;1268;49216;-73
2022/05/31 09:37:50;;;;;;;2.40;1.80;;;;;;;22.92;31.69;96671.45;107797;1268;47887;-74
2022/05/31 09:40:34;;;;;;;3.60;1.80;;;;;;;22.50;32.74;96669.44;107848;1268;37976;-73
2022/05/31 09:43:14;;;;;;;2.90;1.80;;;;;;;22.42;32.96;96675.44;107896;1268;34165;-73
2022/05/31 09:45:52;;;;;;;;;;;;;;;22.34;33.23;96669.63;107845;1268;45873;-73
2022/05/31 09:48:23;;;;;;;2.00;1.50;;;;;;;22.15;33.25;96674.67;107903;1268;33501;-73
2022/05/31 09:51:13;;;;;;;2.60;1.80;;;;;;;22.14;33.12;96669.72;107695;1268;50662;-73
2022/05/31 09:59:29;;;;;;;3.50;1.90;;;;;;;22.82;32.77;96665.60;107753;1267;84984;-73
2022/05/31 10:02:15;;;;;;;3.20;2.00;;;;;;;23.11;33.13;96664.80;107889;1268;32081;-73
2022/05/31 10:04:48;;;;;;;2.90;1.80;;;;;;;22.83;32.72;96661.77;107744;1271;34545;-73
2022/05/31 10:07:35;;;;;;;2.10;1.70;;;;;;;23.00;33.47;96659.02;107788;1268;39503;-73
2022/05/31 10:10:11;;;;;;;2.80;1.70;;;;;;;23.09;32.63;96658.73;107786;1270;35636;-73
2022/05/31 10:12:52;;;;;;;5.30;2.20;;;;;;;22.52;32.96;96656.88;107755;1268;37165;-73
2022/05/31 10:15:48;;;;;;;3.10;2.10;;;;;;;22.40;33.68;96656.02;107826;1268;43098;-72
2022/05/31 10:18:33;;;;;;;3.90;2.00;;;;;;;21.97;33.85;96651.10;107756;1268;34556;-73
2022/05/31 10:21:07;;;;;;;3.30;1.90;;;;;;;21.56;34.56;96659.21;107747;1268;59781;-73
2022/05/31 10:23:44;;;;;;;2.10;1.90;;;;;;;21.39;34.11;96660.02;107799;1267;33969;-74
2022/05/31 10:26:26;;;;;;;2.80;1.90;;;;;;;21.52;34.66;96658.95;107730;1268;49868;-73
2022/05/31 10:29:03;;;;;;;2.10;1.70;;;;;;;22.06;34.19;96652.79;107737;1268;88432;-73
2022/05/31 10:31:38;;;;;;;3.40;2.00;;;;;;;22.44;34.86;96646.73;107824;1268;53343;-73
2022/05/31 10:34:35;;;;;;;2.90;1.80;;;;;;;23.16;34.56;96641.71;107795;1268;29893;-73
2022/05/31 10:37:22;;;;;;;3.00;2.00;;;;;;;23.56;34.22;96638.02;107854;1268;42775;-72
2022/05/31 10:40:04;;;;;;;4.10;1.80;;;;;;;23.53;33.03;96636.26;107732;1268;43641;-73
2022/05/31 10:42:39;;;;;;;5.30;2.10;;;;;;;23.54;33.27;96633.25;107745;1268;31672;-73
2022/05/31 10:45:18;;;;;;;2.70;2.20;;;;;;;23.30;32.92;96634.48;107678;1268;46081;-72
2022/05/31 10:47:50;;;;;;;3.90;2.00;;;;;;;22.88;33.47;96629.59;107714;1270;33694;-72
2022/05/31 10:50:22;;;;;;;1.70;1.60;;;;;;;22.39;33.37;96635.14;107793;1268;51293;-72
2022/05/31 10:53:02;;;;;;;5.50;2.40;;;;;;;21.96;34.17;96636.26;107752;1268;32808;-72
2022/05/31 10:55:40;;;;;;;6.20;2.50;;;;;;;21.72;35.26;96630.55;107786;1270;39400;-73
2022/05/31 10:58:28;;;;;;;2.80;1.80;;;;;;;22.15;35.97;96632.55;107739;1268;43906;-73
2022/05/31 11:01:05;;;;;;;5.50;2.50;;;;;;;22.84;36.11;96630.83;107793;1268;34384;-72
2022/05/31 11:03:45;;;;;;;2.70;1.90;;;;;;;23.32;35.15;96627.48;107807;1268;43293;-73
2022/05/31 11:06:38;;;;;;;4.50;2.50;;;;;;;23.18;34.10;96627.91;107605;1270;48640;-72
2022/05/31 11:12:25;;;;;;;3.40;2.10;;;;;;;22.50;34.54;96626.19;107653;1270;54200;-73
2022/05/31 11:15:07;;;;;;;3.00;2.30;;;;;;;22.18;34.63;96621.95;107747;1268;34555;-73
2022/05/31 11:17:59;;;;;;;4.30;2.70;;;;;;;22.12;35.26;96618.98;107846;1268;34793;-73
2022/05/31 11:20:39;;;;;;;3.60;2.40;;;;;;;22.14;35.24;96615.33;107654;1270;42218;-73
2022/05/31 11:23:38;;;;;;;4.00;2.30;;;;;;;22.23;35.75;96609.11;107720;1270;47657;-73
2022/05/31 11:26:20;;;;;;;4.10;2.30;;;;;;;22.69;36.48;96602.80;107711;1270;37499;-74
2022/05/31 11:29:07;;;;;;;2.70;2.10;;;;;;;23.16;35.48;96599.83;107728;1267;35327;-73
2022/05/31 11:31:54;;;;;;;2.20;2.00;;;;;;;22.49;35.02;96605.23;107784;1268;35291;-73
2022/05/31 11:34:40;;;;;;;4.10;2.60;;;;;;;21.79;35.57;96611.18;107764;1268;34558;-72
2022/05/31 11:37:30;;;;;;;3.90;2.60;;;;;;;21.44;36.78;96607.80;107770;1267;34538;-72
2022/05/31 11:40:14;;;;;;;3.30;2.10;;;;;;;21.43;37.21;96611.25;107672;1270;43950;-72
2022/05/31 11:43:24;;;;;;;3.20;2.70;;;;;;;21.77;37.11;96602.66;107701;1268;46747;-73
2022/05/31 11:46:06;;;;;;;3.70;2.60;;;;;;;21.80;36.70;96603.27;107681;1270;41103;-73
2022/05/31 11:48:52;;;;;;;4.60;3.30;;;;;;;21.73;37.34;96606.58;107825;1270;36719;-73
2022/05/31 11:51:38;;;;;;;3.70;2.50;;;;;;;21.69;37.23;96608.19;107749;1268;45492;-72
2022/05/31 11:54:33;;;;;;;5.10;2.50;;;;;;;21.65;37.61;96601.55;107688;1268;47621;-72
2022/05/31 11:57:17;;;;;;;11.40;9.50;;;;;;;21.76;37.05;96600.08;107849;1268;30963;-73
2022/05/31 11:59:53;;;;;;;9.20;7.70;;;;;;;21.55;36.59;96598.59;107695;1270;34269;-72
2022/05/31 12:02:31;;;;;;;22.30;18.70;;;;;;;21.48;37.32;96593.57;107779;1268;40666;-72
2022/05/31 12:05:12;;;;;;;23.50;18.70;;;;;;;21.79;37.19;96588.89;107783;1268;31128;-73
2022/05/31 12:07:49;;;;;;;17.40;13.00;;;;;;;22.00;36.96;96591.54;107523;1270;49486;-72
2022/05/31 12:10:25;;;;;;;37.90;28.30;;;;;;;21.87;36.25;96594.48;107668;1267;58094;-73
2022/05/31 12:13:00;;;;;;;8.60;7.40;;;;;;;21.53;36.27;96589.14;107758;1268;34725;-72
2022/05/31 12:15:34;;;;;;;6.40;5.10;;;;;;;21.44;37.59;96584.67;107704;1268;51236;-73
2022/05/31 12:18:18;;;;;;;3.80;3.00;;;;;;;21.57;37.92;96585.87;107808;1268;38009;-72
2022/05/31 12:20:54;;;;;;;7.60;4.70;;;;;;;21.36;38.34;96584.50;107721;1268;41891;-72
2022/05/31 12:23:32;;;;;;;6.10;2.40;;;;;;;21.25;38.53;96580.67;107682;1268;57855;-73